createdAt,value
2019-04-29T00:00:19.722Z,1022.23
2019-04-29T00:01:19.639Z,1022.23
2019-04-29T00:02:19.664Z,1022.21
2019-04-29T00:03:19.650Z,1022.28
2019-04-29T00:04:19.656Z,1022.24
2019-04-29T00:05:19.741Z,1022.26
2019-04-29T00:06:19.652Z,1022.26
2019-04-29T00:07:19.670Z,1022.24
2019-04-29T00:08:19.632Z,1022.29
2019-04-29T00:09:19.683Z,1022.33
2019-04-29T00:10:19.675Z,1022.34
2019-04-29T00:11:19.673Z,1022.34
2019-04-29T00:12:19.661Z,1022.32
2019-04-29T00:13:19.627Z,1022.30
2019-04-29T00:14:19.652Z,1022.30
2019-04-29T00:15:19.766Z,1022.35
2019-04-29T00:16:19.670Z,1022.32
2019-04-29T00:17:19.661Z,1022.31
2019-04-29T00:18:19.689Z,1022.36
2019-04-29T00:19:19.651Z,1022.32
2019-04-29T00:20:19.701Z,1022.35
2019-04-29T00:21:19.711Z,1022.32
2019-04-29T00:22:19.646Z,1022.34
2019-04-29T00:23:19.704Z,1022.40
2019-04-29T00:24:19.743Z,1022.42
2019-04-29T00:25:19.911Z,1022.33
2019-04-29T00:26:19.686Z,1022.40
2019-04-29T00:27:19.674Z,1022.45
2019-04-29T00:28:19.709Z,1022.39
2019-04-29T00:29:19.626Z,1022.42
2019-04-29T00:30:19.703Z,1022.45
2019-04-29T00:31:19.647Z,1022.43
2019-04-29T00:32:19.678Z,1022.45
2019-04-29T00:33:19.701Z,1022.46
2019-04-29T00:34:19.664Z,1022.44
2019-04-29T00:35:19.725Z,1022.43
2019-04-29T00:36:19.659Z,1022.47
2019-04-29T00:37:19.659Z,1022.51
2019-04-29T00:38:19.652Z,1022.45
2019-04-29T00:39:19.679Z,1022.47
2019-04-29T00:40:19.699Z,1022.46
2019-04-29T00:41:19.729Z,1022.43
2019-04-29T00:42:19.696Z,1022.52
2019-04-29T00:43:19.687Z,1022.46
2019-04-29T00:44:19.706Z,1022.48
2019-04-29T00:45:19.725Z,1022.53
2019-04-29T00:46:19.686Z,1022.50
2019-04-29T00:47:19.706Z,1022.50
2019-04-29T00:48:19.678Z,1022.50
2019-04-29T00:49:19.712Z,1022.55
2019-04-29T00:50:20.017Z,1022.52
2019-04-29T00:51:20.131Z,1022.52
2019-04-29T00:52:19.647Z,1022.57
2019-04-29T00:53:19.716Z,1022.56
2019-04-29T00:54:19.752Z,1022.49
2019-04-29T00:55:19.736Z,1022.47
2019-04-29T00:56:19.694Z,1022.53
2019-04-29T00:57:19.697Z,1022.54
2019-04-29T00:58:19.660Z,1022.53
2019-04-29T00:59:19.704Z,1022.50
2019-04-29T01:00:19.800Z,1022.56
2019-04-29T01:01:19.737Z,1022.50
2019-04-29T01:02:20.304Z,1022.54
2019-04-29T01:03:19.683Z,1022.52
2019-04-29T01:04:19.685Z,1022.48
2019-04-29T01:05:19.696Z,1022.53
2019-04-29T01:06:19.735Z,1022.56
2019-04-29T01:07:19.716Z,1022.54
2019-04-29T01:08:19.723Z,1022.49
2019-04-29T01:09:19.675Z,1022.55
2019-04-29T01:10:19.743Z,1022.53
2019-04-29T01:11:19.703Z,1022.47
2019-04-29T01:12:19.748Z,1022.60
2019-04-29T01:13:19.731Z,1022.54
2019-04-29T01:14:19.735Z,1022.46
2019-04-29T01:15:19.733Z,1022.54
2019-04-29T01:16:19.712Z,1022.54
2019-04-29T01:17:19.725Z,1022.49
2019-04-29T01:18:19.679Z,1022.57
2019-04-29T01:19:19.704Z,1022.50
2019-04-29T01:20:19.677Z,1022.56
2019-04-29T01:21:19.721Z,1022.54
2019-04-29T01:22:19.771Z,1022.51
2019-04-29T01:23:19.742Z,1022.56
2019-04-29T01:24:19.693Z,1022.54
2019-04-29T01:25:19.753Z,1022.58
2019-04-29T01:26:19.755Z,1022.55
2019-04-29T01:27:19.766Z,1022.56
2019-04-29T01:28:19.757Z,1022.53
2019-04-29T01:29:19.703Z,1022.54
2019-04-29T01:30:19.765Z,1022.55
2019-04-29T01:31:19.790Z,1022.57
2019-04-29T01:32:19.781Z,1022.49
2019-04-29T01:33:19.758Z,1022.60
2019-04-29T01:34:19.743Z,1022.56
2019-04-29T01:35:19.914Z,1022.56
2019-04-29T01:36:19.734Z,1022.53
2019-04-29T01:37:19.749Z,1022.59
2019-04-29T01:38:19.778Z,1022.60
2019-04-29T01:39:19.754Z,1022.57
2019-04-29T01:40:19.746Z,1022.58
2019-04-29T01:41:19.745Z,1022.63
2019-04-29T01:42:19.753Z,1022.58
2019-04-29T01:43:19.704Z,1022.60
2019-04-29T01:44:19.770Z,1022.67
2019-04-29T01:45:19.709Z,1022.62
2019-04-29T01:46:19.747Z,1022.62
2019-04-29T01:47:19.766Z,1022.65
2019-04-29T01:48:19.765Z,1022.64
2019-04-29T01:49:19.758Z,1022.68
2019-04-29T01:50:19.741Z,1022.71
2019-04-29T01:51:19.720Z,1022.66
2019-04-29T01:52:19.796Z,1022.68
2019-04-29T01:53:19.747Z,1022.67
2019-04-29T01:54:19.791Z,1022.68
2019-04-29T01:55:19.737Z,1022.66
2019-04-29T01:56:19.778Z,1022.69
2019-04-29T01:57:19.774Z,1022.70
2019-04-29T01:58:19.786Z,1022.68
2019-04-29T01:59:19.798Z,1022.68
2019-04-29T02:00:19.791Z,1022.70
2019-04-29T02:01:19.764Z,1022.72
2019-04-29T02:02:19.760Z,1022.78
2019-04-29T02:03:19.786Z,1022.72
2019-04-29T02:04:19.797Z,1022.66
2019-04-29T02:05:19.738Z,1022.78
2019-04-29T02:06:19.827Z,1022.76
2019-04-29T02:07:19.848Z,1022.73
2019-04-29T02:08:19.763Z,1022.76
2019-04-29T02:09:19.787Z,1022.80
2019-04-29T02:10:19.737Z,1022.83
2019-04-29T02:11:19.846Z,1022.79
2019-04-29T02:12:19.792Z,1022.81
2019-04-29T02:13:19.777Z,1022.82
2019-04-29T02:14:19.774Z,1022.79
2019-04-29T02:15:19.791Z,1022.78
2019-04-29T02:16:19.801Z,1022.75
2019-04-29T02:17:19.833Z,1022.76
2019-04-29T02:18:19.807Z,1022.72
2019-04-29T02:19:19.855Z,1022.76
2019-04-29T02:20:19.735Z,1022.81
2019-04-29T02:21:19.791Z,1022.80
2019-04-29T02:22:19.815Z,1022.79
2019-04-29T02:23:19.805Z,1022.75
2019-04-29T02:24:19.787Z,1022.84
2019-04-29T02:25:19.785Z,1022.83
2019-04-29T02:26:19.793Z,1022.82
2019-04-29T02:27:19.798Z,1022.83
2019-04-29T02:28:19.775Z,1022.80
2019-04-29T02:29:19.815Z,1022.79
2019-04-29T02:30:19.783Z,1022.75
2019-04-29T02:31:19.840Z,1022.79
2019-04-29T02:32:19.936Z,1022.77
2019-04-29T02:33:19.845Z,1022.83
2019-04-29T02:34:19.909Z,1022.75
2019-04-29T02:35:19.905Z,1022.76
2019-04-29T02:36:19.896Z,1022.75
2019-04-29T02:37:19.973Z,1022.77
2019-04-29T02:38:19.873Z,1022.75
2019-04-29T02:39:19.958Z,1022.75
2019-04-29T02:40:19.895Z,1022.78
2019-04-29T02:41:19.974Z,1022.76
2019-04-29T02:42:19.958Z,1022.75
2019-04-29T02:43:19.965Z,1022.77
2019-04-29T02:44:19.946Z,1022.77
2019-04-29T02:45:19.952Z,1022.80
2019-04-29T02:46:19.929Z,1022.75
2019-04-29T02:47:20.014Z,1022.86
2019-04-29T02:48:19.963Z,1022.81
2019-04-29T02:49:19.962Z,1022.82
2019-04-29T02:50:19.985Z,1022.85
2019-04-29T02:51:20.016Z,1022.76
2019-04-29T02:52:19.990Z,1022.78
2019-04-29T02:53:19.979Z,1022.85
2019-04-29T02:54:19.956Z,1022.86
2019-04-29T02:55:19.989Z,1022.87
2019-04-29T02:56:19.969Z,1022.90
2019-04-29T02:57:20.014Z,1022.86
2019-04-29T02:58:19.952Z,1022.87
2019-04-29T02:59:19.964Z,1022.88
2019-04-29T03:00:20.166Z,1022.87
2019-04-29T03:01:19.917Z,1022.90
2019-04-29T03:02:20.032Z,1022.90
2019-04-29T03:03:19.971Z,1022.91
2019-04-29T03:04:19.970Z,1022.91
2019-04-29T03:05:19.953Z,1022.90
2019-04-29T03:06:19.970Z,1022.93
2019-04-29T03:07:20.012Z,1022.85
2019-04-29T03:08:20.023Z,1022.88
2019-04-29T03:09:19.968Z,1022.86
2019-04-29T03:10:20.005Z,1022.89
2019-04-29T03:11:19.923Z,1022.85
2019-04-29T03:12:19.986Z,1022.88
2019-04-29T03:13:19.999Z,1022.79
2019-04-29T03:14:19.983Z,1022.85
2019-04-29T03:15:19.964Z,1022.85
2019-04-29T03:16:20.054Z,1022.88
2019-04-29T03:17:19.968Z,1022.90
2019-04-29T03:18:20.021Z,1022.86
2019-04-29T03:19:19.970Z,1022.79
2019-04-29T03:20:20.034Z,1022.90
2019-04-29T03:21:20.028Z,1022.82
2019-04-29T03:22:19.958Z,1022.82
2019-04-29T03:23:19.986Z,1022.77
2019-04-29T03:24:19.989Z,1022.74
2019-04-29T03:25:19.998Z,1022.78
2019-04-29T03:26:20.037Z,1022.76
2019-04-29T03:27:19.992Z,1022.75
2019-04-29T03:28:20.018Z,1022.79
2019-04-29T03:29:19.988Z,1022.81
2019-04-29T03:30:20.106Z,1022.79
2019-04-29T03:31:20.057Z,1022.74
2019-04-29T03:32:20.031Z,1022.76
2019-04-29T03:33:20.197Z,1022.80
2019-04-29T03:34:20.013Z,1022.78
2019-04-29T03:35:20.063Z,1022.79
2019-04-29T03:36:19.994Z,1022.80
2019-04-29T03:37:20.023Z,1022.82
2019-04-29T03:38:20.031Z,1022.82
2019-04-29T03:39:20.004Z,1022.82
2019-04-29T03:40:19.987Z,1022.83
2019-04-29T03:41:20.015Z,1022.82
2019-04-29T03:42:20.040Z,1022.79
2019-04-29T03:43:20.030Z,1022.84
2019-04-29T03:44:20.050Z,1022.85
2019-04-29T03:45:19.982Z,1022.93
2019-04-29T03:46:20.007Z,1022.89
2019-04-29T03:47:20.026Z,1022.96
2019-04-29T03:48:20.055Z,1022.93
2019-04-29T03:49:19.977Z,1022.98
2019-04-29T03:50:20.016Z,1022.94
2019-04-29T03:51:19.989Z,1022.94
2019-04-29T03:52:20.105Z,1022.94
2019-04-29T03:53:20.103Z,1023.00
2019-04-29T03:54:20.004Z,1023.00
2019-04-29T03:55:37.592Z,1023.01
2019-04-29T03:56:20.014Z,1023.04
2019-04-29T03:57:20.002Z,1023.05
2019-04-29T03:58:20.069Z,1023.09
2019-04-29T03:59:20.001Z,1023.12
2019-04-29T04:00:20.049Z,1023.12
2019-04-29T04:01:20.015Z,1023.11
2019-04-29T04:02:20.012Z,1023.16
2019-04-29T04:03:20.032Z,1023.15
2019-04-29T04:04:20.049Z,1023.15
2019-04-29T04:05:20.059Z,1023.13
2019-04-29T04:06:20.019Z,1023.18
2019-04-29T04:07:20.101Z,1023.17
2019-04-29T04:08:20.055Z,1023.15
2019-04-29T04:09:20.105Z,1023.17
2019-04-29T04:10:20.087Z,1023.18
2019-04-29T04:11:20.022Z,1023.16
2019-04-29T04:12:20.078Z,1023.21
2019-04-29T04:13:20.072Z,1023.23
2019-04-29T04:14:20.043Z,1023.17
2019-04-29T04:15:20.088Z,1023.17
2019-04-29T04:16:20.099Z,1023.17
2019-04-29T04:17:20.683Z,1023.18
2019-04-29T04:18:20.053Z,1023.20
2019-04-29T04:19:20.050Z,1023.20
2019-04-29T04:20:20.058Z,1023.18
2019-04-29T04:21:20.044Z,1023.20
2019-04-29T04:22:20.034Z,1023.21
2019-04-29T04:23:20.069Z,1023.23
2019-04-29T04:24:20.124Z,1023.20
2019-04-29T04:25:20.117Z,1023.19
2019-04-29T04:26:20.069Z,1023.23
2019-04-29T04:27:20.094Z,1023.23
2019-04-29T04:28:20.251Z,1023.21
2019-04-29T04:29:20.053Z,1023.16
2019-04-29T04:30:20.125Z,1023.16
2019-04-29T04:31:20.033Z,1023.22
2019-04-29T04:32:20.069Z,1023.21
2019-04-29T04:33:20.090Z,1023.21
2019-04-29T04:34:20.058Z,1023.24
2019-04-29T04:35:20.108Z,1023.24
2019-04-29T04:36:20.061Z,1023.23
2019-04-29T04:37:20.088Z,1023.20
2019-04-29T04:38:20.032Z,1023.22
2019-04-29T04:39:20.067Z,1023.19
2019-04-29T04:40:20.080Z,1023.20
2019-04-29T04:41:20.108Z,1023.15
2019-04-29T04:42:20.098Z,1023.24
2019-04-29T04:43:20.197Z,1023.20
2019-04-29T04:44:20.069Z,1023.28
2019-04-29T04:45:20.104Z,1023.26
2019-04-29T04:46:20.082Z,1023.30
2019-04-29T04:47:20.087Z,1023.33
2019-04-29T04:48:20.113Z,1023.28
2019-04-29T04:49:20.105Z,1023.35
2019-04-29T04:50:20.105Z,1023.29
2019-04-29T04:51:20.099Z,1023.35
2019-04-29T04:52:20.107Z,1023.32
2019-04-29T04:53:20.104Z,1023.31
2019-04-29T04:54:20.072Z,1023.35
2019-04-29T04:55:20.066Z,1023.35
2019-04-29T04:56:20.098Z,1023.35
2019-04-29T04:57:20.102Z,1023.36
2019-04-29T04:58:20.121Z,1023.37
2019-04-29T04:59:20.100Z,1023.35
2019-04-29T05:00:20.357Z,1023.33
2019-04-29T05:01:20.081Z,1023.34
2019-04-29T05:02:20.109Z,1023.35
2019-04-29T05:03:20.078Z,1023.38
2019-04-29T05:04:20.142Z,1023.37
2019-04-29T05:05:20.146Z,1023.40
2019-04-29T05:06:20.118Z,1023.46
2019-04-29T05:07:20.109Z,1023.47
2019-04-29T05:08:20.141Z,1023.44
2019-04-29T05:09:20.135Z,1023.44
2019-04-29T05:10:20.176Z,1023.44
2019-04-29T05:11:20.092Z,1023.46
2019-04-29T05:12:20.282Z,1023.44
2019-04-29T05:13:27.832Z,1023.52
2019-04-29T05:14:20.141Z,1023.48
2019-04-29T05:15:20.097Z,1023.49
2019-04-29T05:16:20.106Z,1023.58
2019-04-29T05:17:20.123Z,1023.58
2019-04-29T05:18:20.113Z,1023.57
2019-04-29T05:19:20.127Z,1023.57
2019-04-29T05:20:20.105Z,1023.52
2019-04-29T05:21:20.249Z,1023.51
2019-04-29T05:22:20.107Z,1023.53
2019-04-29T05:23:20.099Z,1023.52
2019-04-29T05:24:20.106Z,1023.47
2019-04-29T05:25:20.170Z,1023.51
2019-04-29T05:26:20.085Z,1023.48
2019-04-29T05:27:20.123Z,1023.56
2019-04-29T05:28:20.138Z,1023.56
2019-04-29T05:29:20.113Z,1023.55
2019-04-29T05:30:20.167Z,1023.63
2019-04-29T05:31:20.228Z,1023.54
2019-04-29T05:32:20.128Z,1023.60
2019-04-29T05:33:20.116Z,1023.63
2019-04-29T05:34:20.121Z,1023.67
2019-04-29T05:35:20.857Z,1023.70
2019-04-29T05:36:20.226Z,1023.71
2019-04-29T05:37:20.130Z,1023.66
2019-04-29T05:38:20.151Z,1023.69
2019-04-29T05:39:20.121Z,1023.72
2019-04-29T05:40:20.155Z,1023.72
2019-04-29T05:41:20.165Z,1023.73
2019-04-29T05:42:20.148Z,1023.73
2019-04-29T05:43:20.151Z,1023.73
2019-04-29T05:44:20.184Z,1023.76
2019-04-29T05:45:20.155Z,1023.75
2019-04-29T05:46:21.508Z,1023.77
2019-04-29T05:47:20.132Z,1023.80
2019-04-29T05:48:20.167Z,1023.76
2019-04-29T05:49:20.168Z,1023.82
2019-04-29T05:50:20.148Z,1023.84
2019-04-29T05:51:22.804Z,1023.77
2019-04-29T05:52:20.216Z,1023.87
2019-04-29T05:53:20.138Z,1023.83
2019-04-29T05:54:20.169Z,1023.84
2019-04-29T05:55:20.203Z,1023.85
2019-04-29T05:56:20.160Z,1023.89
2019-04-29T05:57:24.724Z,1023.90
2019-04-29T05:58:20.182Z,1023.87
2019-04-29T05:59:20.169Z,1023.92
2019-04-29T06:00:23.249Z,1023.88
2019-04-29T06:01:20.141Z,1023.89
2019-04-29T06:02:24.059Z,1023.86
2019-04-29T06:03:20.141Z,1023.88
2019-04-29T06:04:20.119Z,1023.91
2019-04-29T06:05:20.152Z,1023.93
2019-04-29T06:06:20.242Z,1023.95
2019-04-29T06:07:21.653Z,1023.90
2019-04-29T06:08:20.137Z,1023.92
2019-04-29T06:09:20.167Z,1023.91
2019-04-29T06:10:22.882Z,1023.86
2019-04-29T06:11:22.962Z,1023.96
2019-04-29T06:12:20.143Z,1023.95
2019-04-29T06:13:20.215Z,1023.95
2019-04-29T06:14:22.138Z,1023.99
2019-04-29T06:15:20.222Z,1023.92
2019-04-29T06:16:21.079Z,1023.98
2019-04-29T06:17:20.181Z,1023.98
2019-04-29T06:18:21.996Z,1023.93
2019-04-29T06:19:20.139Z,1023.95
2019-04-29T06:20:22.727Z,1024.02
2019-04-29T06:21:20.144Z,1024.00
2019-04-29T06:22:20.157Z,1024.02
2019-04-29T06:23:23.164Z,1024.05
2019-04-29T06:24:20.191Z,1024.07
2019-04-29T06:25:20.310Z,1024.07
2019-04-29T06:26:20.219Z,1024.14
2019-04-29T06:27:20.206Z,1024.10
2019-04-29T06:28:25.871Z,1024.05
2019-04-29T06:29:20.169Z,1024.11
2019-04-29T06:30:20.187Z,1024.10
2019-04-29T06:31:20.151Z,1024.06
2019-04-29T06:32:24.388Z,1024.14
2019-04-29T06:33:24.205Z,1024.11
2019-04-29T06:34:20.171Z,1024.11
2019-04-29T06:35:20.180Z,1024.11
2019-04-29T06:36:20.182Z,1024.14
2019-04-29T06:37:20.202Z,1024.10
2019-04-29T06:38:20.190Z,1024.18
2019-04-29T06:39:20.204Z,1024.11
2019-04-29T06:40:20.207Z,1024.16
2019-04-29T06:41:20.202Z,1024.16
2019-04-29T06:42:20.477Z,1024.18
2019-04-29T06:43:20.194Z,1024.16
2019-04-29T06:44:20.181Z,1024.20
2019-04-29T06:45:20.180Z,1024.15
2019-04-29T06:46:20.202Z,1024.20
2019-04-29T06:47:20.244Z,1024.18
2019-04-29T06:48:20.247Z,1024.15
2019-04-29T06:49:20.205Z,1024.10
2019-04-29T06:50:20.206Z,1024.25
2019-04-29T06:51:20.237Z,1024.24
2019-04-29T06:52:20.210Z,1024.20
2019-04-29T06:53:21.349Z,1024.22
2019-04-29T06:54:20.196Z,1024.28
2019-04-29T06:55:20.263Z,1024.29
2019-04-29T06:56:20.211Z,1024.34
2019-04-29T06:57:20.226Z,1024.31
2019-04-29T06:58:20.215Z,1024.29
2019-04-29T06:59:20.225Z,1024.32
2019-04-29T07:00:22.326Z,1024.36
2019-04-29T07:01:20.187Z,1024.26
2019-04-29T07:02:20.220Z,1024.34
2019-04-29T07:03:20.973Z,1024.32
2019-04-29T07:04:20.200Z,1024.25
2019-04-29T07:05:20.278Z,1024.35
2019-04-29T07:06:20.230Z,1024.31
2019-04-29T07:07:20.221Z,1024.33
2019-04-29T07:08:20.270Z,1024.30
2019-04-29T07:09:20.214Z,1024.35
2019-04-29T07:10:21.745Z,1024.33
2019-04-29T07:11:20.276Z,1024.34
2019-04-29T07:12:20.239Z,1024.31
2019-04-29T07:13:22.802Z,1024.30
2019-04-29T07:14:20.216Z,1024.25
2019-04-29T07:15:20.235Z,1024.23
2019-04-29T07:16:21.894Z,1024.27
2019-04-29T07:17:20.233Z,1024.33
2019-04-29T07:18:20.289Z,1024.31
2019-04-29T07:19:22.158Z,1024.30
2019-04-29T07:20:20.236Z,1024.32
2019-04-29T07:21:20.238Z,1024.30
2019-04-29T07:22:20.884Z,1024.32
2019-04-29T07:23:20.311Z,1024.31
2019-04-29T07:24:20.539Z,1024.24
2019-04-29T07:25:20.270Z,1024.30
2019-04-29T07:26:20.221Z,1024.35
2019-04-29T07:27:20.278Z,1024.27
2019-04-29T07:28:20.277Z,1024.34
2019-04-29T07:29:20.716Z,1024.30
2019-04-29T07:30:20.254Z,1024.30
2019-04-29T07:31:20.260Z,1024.36
2019-04-29T07:32:20.309Z,1024.45
2019-04-29T07:33:22.645Z,1024.48
2019-04-29T07:34:20.283Z,1024.44
2019-04-29T07:35:20.375Z,1024.44
2019-04-29T07:36:22.811Z,1024.44
2019-04-29T07:37:20.281Z,1024.41
2019-04-29T07:38:20.289Z,1024.41
2019-04-29T07:39:20.259Z,1024.48
2019-04-29T07:40:20.255Z,1024.41
2019-04-29T07:41:20.838Z,1024.40
2019-04-29T07:42:20.281Z,1024.42
2019-04-29T07:43:20.336Z,1024.46
2019-04-29T07:44:20.276Z,1024.43
2019-04-29T07:45:23.778Z,1024.38
2019-04-29T07:46:20.236Z,1024.37
2019-04-29T07:47:20.280Z,1024.37
2019-04-29T07:48:20.322Z,1024.38
2019-04-29T07:49:20.284Z,1024.43
2019-04-29T07:50:22.347Z,1024.39
2019-04-29T07:51:20.266Z,1024.32
2019-04-29T07:52:20.267Z,1024.38
2019-04-29T07:53:20.953Z,1024.30
2019-04-29T07:54:20.282Z,1024.34
2019-04-29T07:55:20.267Z,1024.36
2019-04-29T07:56:20.305Z,1024.37
2019-04-29T07:57:20.305Z,1024.41
2019-04-29T07:58:23.027Z,1024.39
2019-04-29T07:59:20.276Z,1024.38
2019-04-29T08:00:20.284Z,1024.44
2019-04-29T08:01:24.654Z,1024.42
2019-04-29T08:02:20.313Z,1024.48
2019-04-29T08:03:20.307Z,1024.43
2019-04-29T08:04:20.291Z,1024.42
2019-04-29T08:05:20.243Z,1024.41
2019-04-29T08:06:20.297Z,1024.44
2019-04-29T08:07:20.300Z,1024.40
2019-04-29T08:08:21.322Z,1024.44
2019-04-29T08:09:20.293Z,1024.37
2019-04-29T08:10:23.744Z,1024.41
2019-04-29T08:11:20.298Z,1024.38
2019-04-29T08:12:20.318Z,1024.40
2019-04-29T08:13:20.334Z,1024.39
2019-04-29T08:14:20.294Z,1024.39
2019-04-29T08:15:20.335Z,1024.37
2019-04-29T08:16:20.320Z,1024.34
2019-04-29T08:17:20.319Z,1024.40
2019-04-29T08:18:20.348Z,1024.43
2019-04-29T08:19:20.309Z,1024.38
2019-04-29T08:20:20.351Z,1024.41
2019-04-29T08:21:20.391Z,1024.37
2019-04-29T08:22:22.859Z,1024.38
2019-04-29T08:23:20.318Z,1024.42
2019-04-29T08:24:20.325Z,1024.41
2019-04-29T08:25:21.736Z,1024.36
2019-04-29T08:26:20.340Z,1024.32
2019-04-29T08:27:20.339Z,1024.33
2019-04-29T08:28:20.291Z,1024.41
2019-04-29T08:29:20.348Z,1024.39
2019-04-29T08:30:20.317Z,1024.34
2019-04-29T08:31:21.035Z,1024.37
2019-04-29T08:32:20.323Z,1024.37
2019-04-29T08:33:20.330Z,1024.37
2019-04-29T08:34:23.218Z,1024.36
2019-04-29T08:35:20.337Z,1024.39
2019-04-29T08:36:20.333Z,1024.35
2019-04-29T08:37:20.322Z,1024.36
2019-04-29T08:38:20.349Z,1024.34
2019-04-29T08:39:20.312Z,1024.33
2019-04-29T08:40:20.305Z,1024.33
2019-04-29T08:41:21.549Z,1024.33
2019-04-29T08:42:20.331Z,1024.33
2019-04-29T08:43:22.187Z,1024.43
2019-04-29T08:44:20.369Z,1024.35
2019-04-29T08:45:20.324Z,1024.26
2019-04-29T08:46:20.331Z,1024.29
2019-04-29T08:47:23.673Z,1024.33
2019-04-29T08:48:20.351Z,1024.25
2019-04-29T08:49:20.341Z,1024.25
2019-04-29T08:50:20.324Z,1024.22
2019-04-29T08:51:20.370Z,1024.22
2019-04-29T08:52:20.366Z,1024.20
2019-04-29T08:53:20.333Z,1024.23
2019-04-29T08:54:21.362Z,1024.30
2019-04-29T08:55:20.402Z,1024.25
2019-04-29T08:56:20.392Z,1024.25
2019-04-29T08:57:20.310Z,1024.30
2019-04-29T08:58:20.308Z,1024.34
2019-04-29T08:59:20.758Z,1024.25
2019-04-29T09:00:20.338Z,1024.25
2019-04-29T09:01:20.368Z,1024.34
2019-04-29T09:02:33.502Z,1024.31
2019-04-29T09:03:23.355Z,1024.24
2019-04-29T09:04:20.356Z,1024.34
2019-04-29T09:05:20.330Z,1024.31
2019-04-29T09:06:20.377Z,1024.33
2019-04-29T09:07:22.085Z,1024.30
2019-04-29T09:08:20.466Z,1024.31
2019-04-29T09:09:29.019Z,1024.23
2019-04-29T09:10:20.375Z,1024.33
2019-04-29T09:11:20.389Z,1024.34
2019-04-29T09:12:24.246Z,1024.25
2019-04-29T09:13:20.445Z,1024.19
2019-04-29T09:14:20.402Z,1024.35
2019-04-29T09:15:20.367Z,1024.33
2019-04-29T09:16:20.412Z,1024.24
2019-04-29T09:17:20.888Z,1024.28
2019-04-29T09:18:20.342Z,1024.27
2019-04-29T09:19:20.388Z,1024.28
2019-04-29T09:20:20.367Z,1024.22
2019-04-29T09:21:20.373Z,1024.24
2019-04-29T09:22:20.502Z,1024.23
2019-04-29T09:23:20.347Z,1024.23
2019-04-29T09:24:20.375Z,1024.28
2019-04-29T09:25:21.273Z,1024.27
2019-04-29T09:26:20.391Z,1024.21
2019-04-29T09:27:20.356Z,1024.21
2019-04-29T09:28:27.167Z,1024.23
2019-04-29T09:29:20.531Z,1024.17
2019-04-29T09:30:20.327Z,1024.18
2019-04-29T09:31:20.378Z,1024.19
2019-04-29T09:32:20.370Z,1024.19
2019-04-29T09:33:20.366Z,1024.20
2019-04-29T09:34:24.710Z,1024.17
2019-04-29T09:35:20.373Z,1024.21
2019-04-29T09:36:20.486Z,1024.15
2019-04-29T09:37:22.945Z,1024.19
2019-04-29T09:38:20.433Z,1024.17
2019-04-29T09:39:21.368Z,1024.10
2019-04-29T09:40:20.398Z,1024.07
2019-04-29T09:41:20.362Z,1024.10
2019-04-29T09:42:20.369Z,1024.08
2019-04-29T09:43:21.487Z,1024.16
2019-04-29T09:44:20.421Z,1024.09
2019-04-29T09:45:24.181Z,1024.02
2019-04-29T09:46:20.424Z,1024.07
2019-04-29T09:47:20.375Z,1024.07
2019-04-29T09:48:20.436Z,1024.03
2019-04-29T09:49:20.477Z,1023.97
2019-04-29T09:50:20.436Z,1024.01
2019-04-29T09:51:22.436Z,1023.99
2019-04-29T09:52:20.401Z,1023.94
2019-04-29T09:53:20.396Z,1024.00
2019-04-29T09:54:20.390Z,1023.94
2019-04-29T09:55:20.360Z,1023.96
2019-04-29T09:56:20.454Z,1023.97
2019-04-29T09:57:20.583Z,1024.00
2019-04-29T09:58:20.436Z,1023.98
2019-04-29T09:59:20.433Z,1023.94
2019-04-29T10:00:20.446Z,1023.93
2019-04-29T10:01:20.919Z,1023.95
2019-04-29T10:02:20.439Z,1023.94
2019-04-29T10:03:20.477Z,1023.95
2019-04-29T10:04:20.432Z,1023.98
2019-04-29T10:05:20.465Z,1023.90
2019-04-29T10:06:20.459Z,1023.97
2019-04-29T10:07:20.381Z,1023.95
2019-04-29T10:08:20.501Z,1023.93
2019-04-29T10:09:20.526Z,1023.89
2019-04-29T10:10:20.430Z,1023.86
2019-04-29T10:11:20.446Z,1023.90
2019-04-29T10:12:20.437Z,1023.89
2019-04-29T10:13:20.468Z,1023.86
2019-04-29T10:14:20.413Z,1023.88
2019-04-29T10:15:20.427Z,1023.89
2019-04-29T10:16:20.459Z,1023.89
2019-04-29T10:17:20.405Z,1023.89
2019-04-29T10:18:20.460Z,1023.86
2019-04-29T10:19:20.466Z,1023.80
2019-04-29T10:20:20.460Z,1023.86
2019-04-29T10:21:21.573Z,1023.86
2019-04-29T10:22:20.495Z,1023.84
2019-04-29T10:23:20.405Z,1023.83
2019-04-29T10:24:20.592Z,1023.88
2019-04-29T10:25:20.484Z,1023.79
2019-04-29T10:26:20.477Z,1023.82
2019-04-29T10:27:20.536Z,1023.85
2019-04-29T10:28:20.478Z,1023.85
2019-04-29T10:29:20.455Z,1023.85
2019-04-29T10:30:20.475Z,1023.76
2019-04-29T10:31:20.447Z,1023.82
2019-04-29T10:32:20.504Z,1023.84
2019-04-29T10:33:23.091Z,1023.80
2019-04-29T10:34:20.454Z,1023.84
2019-04-29T10:35:20.417Z,1023.80
2019-04-29T10:36:21.756Z,1023.78
2019-04-29T10:37:23.705Z,1023.80
2019-04-29T10:38:20.479Z,1023.77
2019-04-29T10:39:22.591Z,1023.79
2019-04-29T10:40:20.480Z,1023.70
2019-04-29T10:41:20.494Z,1023.74
2019-04-29T10:42:22.941Z,1023.76
2019-04-29T10:43:20.460Z,1023.72
2019-04-29T10:44:20.485Z,1023.75
2019-04-29T10:45:20.467Z,1023.65
2019-04-29T10:46:20.468Z,1023.67
2019-04-29T10:47:20.572Z,1023.66
2019-04-29T10:48:20.495Z,1023.73
2019-04-29T10:49:20.435Z,1023.71
2019-04-29T10:50:23.571Z,1023.65
2019-04-29T10:51:23.218Z,1023.63
2019-04-29T10:52:20.544Z,1023.68
2019-04-29T10:53:20.627Z,1023.68
2019-04-29T10:54:20.537Z,1023.61
2019-04-29T10:55:20.544Z,1023.62
2019-04-29T10:56:20.499Z,1023.64
2019-04-29T10:57:20.539Z,1023.60
2019-04-29T10:58:22.014Z,1023.61
2019-04-29T10:59:20.518Z,1023.66
2019-04-29T11:00:21.854Z,1023.61
2019-04-29T11:01:20.534Z,1023.55
2019-04-29T11:02:20.522Z,1023.58
2019-04-29T11:03:20.682Z,1023.58
2019-04-29T11:04:20.544Z,1023.56
2019-04-29T11:05:20.543Z,1023.58
2019-04-29T11:06:20.518Z,1023.58
2019-04-29T11:07:26.387Z,1023.52
2019-04-29T11:08:20.588Z,1023.58
2019-04-29T11:09:20.563Z,1023.51
2019-04-29T11:10:25.307Z,1023.56
2019-04-29T11:11:24.113Z,1023.61
2019-04-29T11:12:20.563Z,1023.57
2019-04-29T11:13:20.536Z,1023.56
2019-04-29T11:14:20.609Z,1023.54
2019-04-29T11:15:20.572Z,1023.52
2019-04-29T11:16:23.036Z,1023.56
2019-04-29T11:17:20.576Z,1023.55
2019-04-29T11:18:23.182Z,1023.52
2019-04-29T11:19:20.587Z,1023.50
2019-04-29T11:20:21.512Z,1023.52
2019-04-29T11:21:20.599Z,1023.45
2019-04-29T11:22:20.731Z,1023.48
2019-04-29T11:23:20.564Z,1023.46
2019-04-29T11:24:20.575Z,1023.45
2019-04-29T11:25:20.595Z,1023.50
2019-04-29T11:26:20.580Z,1023.45
2019-04-29T11:27:20.589Z,1023.47
2019-04-29T11:28:20.700Z,1023.55
2019-04-29T11:29:22.255Z,1023.42
2019-04-29T11:30:20.615Z,1023.39
2019-04-29T11:31:20.592Z,1023.42
2019-04-29T11:32:20.636Z,1023.45
2019-04-29T11:33:20.605Z,1023.41
2019-04-29T11:34:20.560Z,1023.41
2019-04-29T11:35:20.584Z,1023.45
2019-04-29T11:36:20.601Z,1023.42
2019-04-29T11:37:23.693Z,1023.45
2019-04-29T11:38:20.570Z,1023.46
2019-04-29T11:39:20.581Z,1023.41
2019-04-29T11:40:24.274Z,1023.42
2019-04-29T11:41:20.908Z,1023.35
2019-04-29T11:42:20.595Z,1023.43
2019-04-29T11:43:20.688Z,1023.42
2019-04-29T11:44:21.834Z,1023.30
2019-04-29T11:45:20.603Z,1023.33
2019-04-29T11:46:21.163Z,1023.41
2019-04-29T11:47:24.891Z,1023.33
2019-04-29T11:48:20.656Z,1023.35
2019-04-29T11:49:20.619Z,1023.34
2019-04-29T11:50:20.631Z,1023.26
2019-04-29T11:51:20.724Z,1023.32
2019-04-29T11:52:23.666Z,1023.38
2019-04-29T11:53:20.783Z,1023.32
2019-04-29T11:54:20.639Z,1023.28
2019-04-29T11:55:20.620Z,1023.27
2019-04-29T11:56:20.708Z,1023.20
2019-04-29T11:57:20.609Z,1023.32
2019-04-29T11:58:20.661Z,1023.25
2019-04-29T11:59:20.719Z,1023.25
2019-04-29T12:00:20.582Z,1023.24
2019-04-29T12:01:20.629Z,1023.19
2019-04-29T12:02:24.273Z,1023.19
2019-04-29T12:03:20.631Z,1023.19
2019-04-29T12:04:20.661Z,1023.17
2019-04-29T12:05:20.587Z,1023.18